Time;durP1;ratioP1;P1;durP2;ratioP2;P2;SDS_P1;SDS_P2;PMS_P1;PMS_P2;Temp;Humidity;BMP_temperature;BMP_pressure;BME280_temperature;BME280_humidity;BME280_pressure;Samples;Min_cycle;Max_cycle;Signal;HPM_P1;HPM_P2
2023/12/20 00:00:15;;;;;;;0.60;0.60;;;;;;;4.60;99.79;96858.91;29395;245;63009;-70
2023/12/20 00:00:47;;;;;;;0.60;0.60;;;;;;;4.58;99.73;96861.03;29395;208;63004;-68
2023/12/20 00:01:18;;;;;;;0.60;0.60;;;;;;;4.57;99.81;96862.09;29395;240;63009;-63
2023/12/20 00:01:49;;;;;;;0.60;0.60;;;;;;;4.60;100.00;96847.34;29394;206;64009;-63
2023/12/20 00:02:20;;;;;;;1.98;1.87;;;;;;;4.66;100.00;96847.13;29395;220;63009;-66
2023/12/20 00:02:53;;;;;;;0.60;0.60;;;;;;;4.65;99.95;96845.50;29396;298;63010;-67
2023/12/20 00:03:25;;;;;;;0.57;0.57;;;;;;;4.64;99.79;96843.88;29396;212;63017;-66
2023/12/20 00:03:56;;;;;;;0.60;0.60;;;;;;;4.64;99.80;96854.63;29395;260;64009;-54
2023/12/20 00:04:27;;;;;;;0.60;0.60;;;;;;;4.65;99.83;96850.88;29396;216;63009;-54
2023/12/20 00:04:58;;;;;;;0.60;0.60;;;;;;;4.63;99.80;96842.25;29396;218;63005;-67
2023/12/20 00:05:32;;;;;;;0.55;0.55;;;;;;;4.61;100.00;96843.59;29396;229;63009;-67
2023/12/20 00:06:04;;;;;;;0.88;0.88;;;;;;;4.57;99.83;96832.53;29396;199;63008;-67
2023/12/20 00:06:35;;;;;;;0.60;0.60;;;;;;;4.58;100.00;96838.72;29396;207;63009;-66
2023/12/20 00:07:06;;;;;;;0.60;0.60;;;;;;;4.58;100.00;96839.53;29396;196;63004;-63
2023/12/20 00:07:37;;;;;;;0.90;0.90;;;;;;;4.60;100.00;96837.41;29396;283;63009;-66
2023/12/20 00:08:08;;;;;;;0.60;0.60;;;;;;;4.62;100.00;96840.63;29396;287;63004;-53
2023/12/20 00:08:40;;;;;;;0.60;0.60;;;;;;;4.59;100.00;96827.72;29396;203;63009;-67
2023/12/20 00:09:11;;;;;;;0.60;0.60;;;;;;;4.59;99.98;96841.16;29395;233;64009;-66
2023/12/20 00:09:42;;;;;;;0.60;0.60;;;;;;;4.61;100.00;96828.28;29396;229;63013;-54
2023/12/20 00:10:14;;;;;;;0.60;0.60;;;;;;;4.61;100.00;96833.62;29396;229;63005;-55
2023/12/20 00:10:45;;;;;;;0.60;0.60;;;;;;;4.63;99.99;96836.06;29396;306;63009;-65
2023/12/20 00:11:18;;;;;;;0.60;0.60;;;;;;;4.62;100.00;96837.94;29396;209;63013;-69
2023/12/20 00:11:50;;;;;;;0.50;0.50;;;;;;;4.62;100.00;96835.25;29396;203;63009;-66
2023/12/20 00:12:21;;;;;;;0.60;0.60;;;;;;;4.62;100.00;96837.94;29396;259;63005;-68
2023/12/20 00:12:53;;;;;;;0.60;0.60;;;;;;;4.60;100.00;96834.72;29396;267;63004;-68
2023/12/20 00:13:24;;;;;;;0.60;0.60;;;;;;;4.59;100.00;96835.78;29396;208;63004;-63
2023/12/20 00:13:55;;;;;;;0.50;0.50;;;;;;;4.59;100.00;96843.84;29396;208;63009;-68
2023/12/20 00:14:26;;;;;;;0.60;0.60;;;;;;;4.58;100.00;96842.22;29395;218;64009;-68
2023/12/20 00:14:58;;;;;;;0.60;0.60;;;;;;;4.60;100.00;96837.41;29396;199;63009;-67
2023/12/20 00:15:29;;;;;;;0.50;0.50;;;;;;;4.60;100.00;96841.97;29396;212;63004;-66
2023/12/20 00:16:00;;;;;;;0.82;0.82;;;;;;;4.63;100.00;96836.88;29396;214;63008;-68
2023/12/20 00:16:31;;;;;;;0.50;0.50;;;;;;;4.69;100.00;96835.06;29396;236;63005;-54
2023/12/20 00:17:04;;;;;;;0.60;0.60;;;;;;;4.71;100.00;96839.09;29396;198;63009;-55
2023/12/20 00:17:35;;;;;;;0.60;0.60;;;;;;;4.70;100.00;96837.50;29396;205;63014;-65
2023/12/20 00:18:06;;;;;;;0.60;0.60;;;;;;;4.72;100.00;96840.72;29396;255;63018;-67
2023/12/20 00:18:39;;;;;;;0.60;0.60;;;;;;;4.74;100.00;96839.66;29396;222;63017;-68
2023/12/20 00:19:12;;;;;;;0.60;0.60;;;;;;;4.68;100.00;96839.63;29396;249;63009;-66
2023/12/20 00:19:43;;;;;;;0.60;0.60;;;;;;;4.67;100.00;96832.63;29395;203;64009;-63
2023/12/20 00:20:16;;;;;;;0.60;0.60;;;;;;;4.68;100.00;96836.94;29396;197;63009;-54
2023/12/20 00:20:47;;;;;;;0.60;0.60;;;;;;;4.69;100.00;96825.13;29396;238;63004;-67
2023/12/20 00:21:25;;;;;;;0.60;0.60;;;;;;;4.68;100.00;96828.88;29396;245;63019;-66
2023/12/20 00:21:56;;;;;;;0.60;0.60;;;;;;;4.65;100.00;96834.75;29396;204;63004;-54
2023/12/20 00:22:27;;;;;;;0.60;0.60;;;;;;;4.65;100.00;96834.75;29396;249;63009;-67
2023/12/20 00:22:58;;;;;;;0.60;0.60;;;;;;;4.63;100.00;96836.88;29396;218;63004;-67
2023/12/20 00:23:30;;;;;;;0.50;0.50;;;;;;;4.62;100.00;96824.50;29396;196;63008;-69
2023/12/20 00:24:02;;;;;;;0.60;0.60;;;;;;;4.63;100.00;96834.19;29396;236;63010;-67
2023/12/20 00:24:33;;;;;;;0.60;0.60;;;;;;;4.65;100.00;96824.00;29396;226;63009;-67
2023/12/20 00:25:05;;;;;;;0.90;0.90;;;;;;;4.65;100.00;96818.62;29395;230;64009;-66
2023/12/20 00:25:37;;;;;;;0.65;0.65;;;;;;;4.67;100.00;96824.56;29396;234;63009;-65
2023/12/20 00:26:08;;;;;;;0.60;0.60;;;;;;;4.68;100.00;96822.69;29396;197;63005;-64
2023/12/20 00:26:42;;;;;;;0.60;0.60;;;;;;;4.74;100.00;96827.03;29396;234;63009;-55
2023/12/20 00:27:13;;;;;;;0.60;0.60;;;;;;;4.75;100.00;96825.97;29396;197;63005;-54
2023/12/20 00:27:44;;;;;;;0.60;0.60;;;;;;;4.74;100.00;96828.91;29396;252;63009;-66
2023/12/20 00:28:16;;;;;;;0.60;0.60;;;;;;;4.78;100.00;96827.34;29396;238;63004;-69
2023/12/20 00:28:47;;;;;;;0.50;0.50;;;;;;;4.80;100.00;96825.19;29396;224;63009;-54
2023/12/20 00:29:18;;;;;;;0.60;0.60;;;;;;;4.78;100.00;96821.97;29396;219;63004;-68
2023/12/20 00:29:50;;;;;;;0.60;0.60;;;;;;;4.76;100.00;96829.47;29396;246;63009;-66
2023/12/20 00:30:21;;;;;;;0.60;0.60;;;;;;;4.74;100.00;96820.84;29395;285;64009;-54
2023/12/20 00:30:53;;;;;;;0.60;0.60;;;;;;;4.70;100.00;96824.06;29396;202;63008;-68
2023/12/20 00:31:24;;;;;;;0.60;0.60;;;;;;;4.69;100.00;96813.56;29396;202;63005;-64
2023/12/20 00:31:55;;;;;;;0.60;0.60;;;;;;;4.68;100.00;96820.81;29395;257;64014;-67
2023/12/20 00:32:26;;;;;;;0.60;0.60;;;;;;;4.70;100.00;96820.56;29396;207;63005;-65
2023/12/20 00:32:58;;;;;;;0.60;0.60;;;;;;;4.72;100.00;96824.59;29396;299;63009;-67
2023/12/20 00:33:29;;;;;;;0.60;0.60;;;;;;;4.75;100.00;96827.84;29396;216;63005;-67
2023/12/20 00:34:00;;;;;;;0.60;0.60;;;;;;;4.73;100.00;96817.34;29396;210;63009;-60
2023/12/20 00:34:31;;;;;;;0.60;0.60;;;;;;;4.76;100.00;96816.03;29396;234;63005;-64
2023/12/20 00:35:03;;;;;;;0.60;0.60;;;;;;;4.70;100.00;96816.00;29396;242;63009;-66
2023/12/20 00:35:34;;;;;;;0.60;0.60;;;;;;;4.67;100.00;96811.12;29396;226;63004;-66
2023/12/20 00:36:06;;;;;;;0.60;0.60;;;;;;;4.65;100.00;96818.62;29396;200;63009;-66
2023/12/20 00:36:37;;;;;;;0.60;0.60;;;;;;;4.63;100.00;96826.12;29395;258;64004;-68
2023/12/20 00:37:09;;;;;;;0.60;0.60;;;;;;;4.64;100.00;96819.69;29395;227;64013;-68
2023/12/20 00:37:43;;;;;;;0.50;0.50;;;;;;;4.62;100.00;96819.12;29396;246;63015;-68
2023/12/20 00:38:15;;;;;;;0.60;0.60;;;;;;;4.59;100.00;96818.84;29396;206;63008;-66
2023/12/20 00:38:46;;;;;;;0.60;0.60;;;;;;;4.58;100.00;96814.53;29396;219;63004;-54
2023/12/20 00:39:19;;;;;;;0.60;0.60;;;;;;;4.54;100.00;96816.91;29396;225;63009;-67
2023/12/20 00:39:51;;;;;;;0.60;0.60;;;;;;;4.56;100.00;96825.53;29396;202;63005;-67
2023/12/20 00:40:23;;;;;;;0.60;0.60;;;;;;;4.55;100.00;96817.72;29396;218;63023;-66
2023/12/20 00:40:54;;;;;;;0.50;0.50;;;;;;;4.53;100.00;96815.28;29395;265;64005;-67
2023/12/20 00:41:25;;;;;;;0.60;0.60;;;;;;;4.52;100.00;96816.34;29396;252;63009;-54
2023/12/20 00:41:56;;;;;;;0.60;0.60;;;;;;;4.51;100.00;96817.44;29396;242;63005;-68
2023/12/20 00:42:27;;;;;;;0.55;0.55;;;;;;;4.50;100.00;96815.84;29395;208;64013;-70
2023/12/20 00:42:59;;;;;;;0.60;0.60;;;;;;;4.55;100.00;96818.53;29396;214;63005;-66
2023/12/20 00:43:30;;;;;;;0.60;0.60;;;;;;;4.55;100.00;96815.84;29396;207;63009;-67
2023/12/20 00:44:01;;;;;;;0.60;0.60;;;;;;;4.55;100.00;96818.53;29396;231;63004;-69
2023/12/20 00:44:33;;;;;;;0.60;0.60;;;;;;;4.53;100.00;96823.34;29396;222;63009;-54
2023/12/20 00:45:05;;;;;;;0.60;0.60;;;;;;;4.55;100.00;96823.09;29396;204;63004;-54
2023/12/20 00:45:37;;;;;;;0.60;0.60;;;;;;;4.52;100.00;96826.28;29396;245;63012;-68
2023/12/20 00:46:10;;;;;;;0.60;0.60;;;;;;;4.50;100.00;96818.53;29396;221;63004;-68
2023/12/20 00:46:41;;;;;;;0.95;0.95;;;;;;;4.50;100.00;96821.22;29397;275;63009;-54
2023/12/20 00:47:13;;;;;;;0.60;0.60;;;;;;;4.50;100.00;96821.22;29397;276;63005;-63
2023/12/20 00:47:44;;;;;;;0.60;0.60;;;;;;;4.49;100.00;96821.47;29396;250;64013;-68
2023/12/20 00:48:16;;;;;;;0.60;0.60;;;;;;;4.49;100.00;96816.91;29397;212;63005;-67
2023/12/20 00:48:47;;;;;;;0.60;0.60;;;;;;;4.59;100.00;96819.66;29396;252;64013;-54
2023/12/20 00:49:21;;;;;;;0.55;0.55;;;;;;;4.57;100.00;96819.09;29397;206;63005;-65
2023/12/20 00:49:53;;;;;;;0.60;0.60;;;;;;;4.57;100.00;96812.91;29397;202;63009;-67
2023/12/20 00:50:24;;;;;;;0.60;0.60;;;;;;;4.53;100.00;96815.28;29396;207;64004;-66
2023/12/20 00:50:56;;;;;;;0.60;0.60;;;;;;;4.52;100.00;96818.25;29397;218;63012;-67
2023/12/20 00:51:28;;;;;;;0.60;0.60;;;;;;;4.46;100.00;96813.91;29397;253;63004;-55
2023/12/20 00:52:01;;;;;;;0.50;0.50;;;;;;;4.52;100.00;96813.66;29397;196;63009;-64
2023/12/20 00:52:33;;;;;;;0.60;0.60;;;;;;;4.52;100.00;96816.34;29397;202;63004;-66
2023/12/20 00:53:05;;;;;;;0.60;0.60;;;;;;;4.52;100.00;96819.03;29397;214;63008;-67
2023/12/20 00:53:37;;;;;;;0.60;0.60;;;;;;;4.52;100.00;96815.53;29396;228;64009;-68
2023/12/20 00:54:09;;;;;;;0.60;0.60;;;;;;;4.53;100.00;96804.53;29397;248;63023;-67
2023/12/20 00:54:40;;;;;;;0.60;0.60;;;;;;;4.53;100.00;96809.91;29397;202;63005;-70
2023/12/20 00:55:13;;;;;;;0.60;0.60;;;;;;;4.55;100.00;96810.47;29397;202;63009;-54
2023/12/20 00:55:50;;;;;;;0.60;0.60;;;;;;;4.51;100.00;96809.38;29397;222;63019;-54
2023/12/20 00:56:21;;;;;;;0.60;0.60;;;;;;;4.48;100.00;96811.78;29397;247;63009;-67
2023/12/20 00:56:53;;;;;;;0.60;0.60;;;;;;;4.44;100.00;96808.78;29397;219;63014;-66
2023/12/20 00:57:24;;;;;;;0.60;0.60;;;;;;;4.42;100.00;96808.22;29396;310;64013;-68
2023/12/20 00:57:55;;;;;;;0.60;0.60;;;;;;;4.46;100.00;96805.84;29397;211;63011;-68
2023/12/20 00:58:27;;;;;;;0.60;0.60;;;;;;;4.47;100.00;96805.59;29397;230;63009;-69
2023/12/20 00:58:59;;;;;;;0.60;0.60;;;;;;;4.47;100.00;96805.59;29396;202;64009;-54
2023/12/20 00:59:30;;;;;;;0.60;0.60;;;;;;;4.45;100.00;96802.34;29397;202;63009;-69
2023/12/20 01:00:02;;;;;;;0.60;0.60;;;;;;;4.41;100.00;96812.00;29396;208;63004;-69
2023/12/20 01:00:33;;;;;;;0.60;0.60;;;;;;;4.40;100.00;96804.19;29396;240;63008;-54
2023/12/20 01:01:06;;;;;;;0.60;0.60;;;;;;;4.36;100.00;96798.50;29396;235;63005;-54
2023/12/20 01:01:38;;;;;;;0.60;0.60;;;;;;;4.34;100.00;96797.94;29396;197;63009;-53
2023/12/20 01:02:09;;;;;;;0.60;0.60;;;;;;;4.31;100.00;96796.59;29396;202;63005;-68
2023/12/20 01:02:41;;;;;;;0.60;0.60;;;;;;;4.30;100.00;96800.34;29396;219;63009;-67
2023/12/20 01:03:12;;;;;;;0.60;0.60;;;;;;;4.29;100.00;96803.28;29396;199;63014;-66
2023/12/20 01:03:44;;;;;;;0.60;0.60;;;;;;;4.34;100.00;96811.38;29396;203;63009;-68
2023/12/20 01:04:15;;;;;;;0.60;0.60;;;;;;;4.38;100.00;96802.56;29395;224;64009;-54
2023/12/20 01:04:46;;;;;;;0.50;0.50;;;;;;;4.39;100.00;96803.38;29396;238;63009;-67
2023/12/20 01:05:23;;;;;;;0.60;0.60;;;;;;;4.36;100.00;96811.94;29396;202;63004;-55
2023/12/20 01:05:54;;;;;;;0.60;0.60;;;;;;;4.35;100.00;96810.31;29396;230;63009;-54
2023/12/20 01:06:25;;;;;;;0.60;0.60;;;;;;;4.34;100.00;96801.44;29396;251;63004;-54
2023/12/20 01:06:56;;;;;;;0.60;0.60;;;;;;;4.33;100.00;96812.44;29396;278;63009;-68
2023/12/20 01:07:28;;;;;;;0.60;0.60;;;;;;;4.32;100.00;96805.44;29395;207;64004;-67
2023/12/20 01:07:59;;;;;;;0.60;0.60;;;;;;;4.31;100.00;96811.88;29396;239;63013;-67
2023/12/20 01:08:31;;;;;;;0.60;0.60;;;;;;;4.29;100.00;96819.38;29396;202;63005;-65
2023/12/20 01:09:03;;;;;;;0.60;0.60;;;;;;;4.27;100.00;96810.78;29396;203;63016;-67
2023/12/20 01:09:34;;;;;;;0.60;0.60;;;;;;;4.27;100.00;96816.13;29395;224;64009;-66
2023/12/20 01:10:06;;;;;;;0.60;0.60;;;;;;;4.26;100.00;96818.03;29396;243;63009;-66
2023/12/20 01:10:38;;;;;;;0.60;0.60;;;;;;;4.26;100.00;96819.91;29396;202;63005;-65
2023/12/20 01:11:09;;;;;;;0.60;0.60;;;;;;;4.23;100.00;96815.03;29396;296;63009;-66
2023/12/20 01:11:41;;;;;;;0.60;0.60;;;;;;;4.22;100.00;96819.59;29396;263;63005;-67
2023/12/20 01:12:12;;;;;;;0.60;0.60;;;;;;;4.23;100.00;96812.34;29396;236;63009;-67
2023/12/20 01:12:44;;;;;;;0.60;0.60;;;;;;;4.22;100.00;96814.22;29396;235;63004;-66
2023/12/20 01:13:15;;;;;;;0.60;0.60;;;;;;;4.23;100.00;96820.41;29396;270;63009;-66
2023/12/20 01:13:47;;;;;;;0.60;0.60;;;;;;;4.23;100.00;96815.03;29396;293;63004;-55
2023/12/20 01:14:18;;;;;;;0.60;0.60;;;;;;;4.21;100.00;96820.66;29396;288;63009;-55
2023/12/20 01:14:49;;;;;;;0.50;0.50;;;;;;;4.20;100.00;96816.34;29395;286;64009;-67
2023/12/20 01:15:23;;;;;;;0.60;0.60;;;;;;;4.20;100.00;96820.91;29396;213;63008;-66
2023/12/20 01:15:54;;;;;;;0.60;0.60;;;;;;;4.19;100.00;96816.59;29396;249;63005;-62
2023/12/20 01:16:25;;;;;;;0.60;0.60;;;;;;;4.19;100.00;96825.47;29396;199;63009;-63
2023/12/20 01:16:57;;;;;;;0.60;0.60;;;;;;;4.25;100.00;96818.28;29396;249;63005;-64
2023/12/20 01:17:28;;;;;;;0.60;0.60;;;;;;;4.23;100.00;96813.16;29396;202;63021;-65
2023/12/20 01:18:01;;;;;;;0.60;0.60;;;;;;;4.22;100.00;96813.41;29398;264;63005;-66
2023/12/20 01:18:32;;;;;;;0.60;0.60;;;;;;;4.22;100.00;96818.78;29396;291;63009;-66
2023/12/20 01:19:03;;;;;;;0.60;0.60;;;;;;;4.20;100.00;96819.03;29396;223;63005;-64
2023/12/20 01:19:34;;;;;;;0.60;0.60;;;;;;;4.21;100.00;96817.16;29396;245;63018;-64
2023/12/20 01:20:08;;;;;;;0.50;0.50;;;;;;;4.19;100.00;96819.28;29395;269;64009;-64
2023/12/20 01:20:39;;;;;;;0.60;0.60;;;;;;;4.17;100.00;96822.22;29396;207;63009;-66
2023/12/20 01:21:11;;;;;;;0.60;0.60;;;;;;;4.16;100.00;96814.44;29396;252;63004;-65
2023/12/20 01:21:43;;;;;;;0.50;0.50;;;;;;;4.17;100.00;96816.84;29396;262;63009;-63
2023/12/20 01:22:17;;;;;;;0.60;0.60;;;;;;;4.16;100.00;96820.59;29396;294;63004;-65
2023/12/20 01:22:48;;;;;;;0.60;0.60;;;;;;;4.16;100.00;96817.13;29396;208;63008;-63
2023/12/20 01:23:20;;;;;;;0.60;0.60;;;;;;;4.14;100.00;96822.75;29396;240;63005;-56
2023/12/20 01:23:51;;;;;;;0.60;0.60;;;;;;;4.16;100.00;96825.19;29395;238;64014;-64
2023/12/20 01:24:22;;;;;;;0.60;0.60;;;;;;;4.16;100.00;96825.19;29396;197;63005;-63
2023/12/20 01:24:53;;;;;;;0.60;0.60;;;;;;;4.15;100.00;96823.56;29396;252;63009;-56
2023/12/20 01:25:28;;;;;;;0.60;0.60;;;;;;;4.13;100.00;96814.94;29395;230;64009;-63
2023/12/20 01:26:00;;;;;;;0.60;0.60;;;;;;;4.20;100.00;96828.97;29396;253;63009;-56
2023/12/20 01:26:31;;;;;;;0.60;0.60;;;;;;;4.19;100.00;96821.97;29397;259;63005;-62
2023/12/20 01:27:03;;;;;;;0.60;0.60;;;;;;;4.17;100.00;96827.59;29396;248;63025;-56
2023/12/20 01:27:35;;;;;;;0.60;0.60;;;;;;;4.16;100.00;96819.81;29396;198;63004;-62
2023/12/20 01:28:06;;;;;;;0.60;0.60;;;;;;;4.14;100.00;96816.56;29396;208;63009;-60
2023/12/20 01:28:38;;;;;;;0.60;0.60;;;;;;;4.14;100.00;96821.94;29396;220;63004;-56
2023/12/20 01:29:10;;;;;;;0.60;0.60;;;;;;;4.16;100.00;96814.44;29396;234;63009;-58
2023/12/20 01:29:42;;;;;;;0.60;0.60;;;;;;;4.19;100.00;96821.97;29395;245;64009;-63
2023/12/20 01:30:14;;;;;;;0.60;0.60;;;;;;;4.18;100.00;96821.16;29396;217;63008;-62
2023/12/20 01:30:46;;;;;;;0.60;0.60;;;;;;;4.16;100.00;96814.44;29396;194;63004;-63
2023/12/20 01:31:17;;;;;;;0.60;0.60;;;;;;;4.14;100.00;96827.31;29396;226;63026;-62
2023/12/20 01:31:48;;;;;;;0.52;0.52;;;;;;;4.12;100.00;96818.69;29396;227;63005;-62
2023/12/20 01:32:21;;;;;;;0.60;0.60;;;;;;;4.11;100.00;96817.06;29396;284;63009;-64
2023/12/20 01:32:52;;;;;;;0.60;0.60;;;;;;;4.11;100.00;96817.06;29396;208;63005;-66
2023/12/20 01:33:23;;;;;;;0.60;0.60;;;;;;;4.12;100.00;96818.69;29396;260;63009;-62
2023/12/20 01:33:56;;;;;;;0.60;0.60;;;;;;;4.12;100.00;96822.19;29396;197;63011;-63
2023/12/20 01:34:28;;;;;;;0.60;0.60;;;;;;;4.17;100.00;96821.41;29396;199;63009;-62
2023/12/20 01:35:03;;;;;;;1.12;1.12;;;;;;;4.17;100.00;96826.78;29395;258;64009;-62
2023/12/20 01:35:34;;;;;;;0.60;0.60;;;;;;;4.15;100.00;96823.56;29396;291;63009;-57
2023/12/20 01:36:06;;;;;;;0.60;0.60;;;;;;;4.11;100.00;96822.44;29396;225;63016;-58
2023/12/20 01:36:37;;;;;;;0.60;0.60;;;;;;;4.09;100.00;96819.19;29396;214;63009;-60
2023/12/20 01:37:08;;;;;;;0.60;0.60;;;;;;;4.07;100.00;96815.97;29396;207;63004;-62
2023/12/20 01:37:39;;;;;;;0.60;0.60;;;;;;;4.06;100.00;96825.06;29396;197;63008;-61
2023/12/20 01:38:11;;;;;;;0.60;0.60;;;;;;;4.06;100.00;96825.06;29396;204;63004;-61
2023/12/20 01:38:44;;;;;;;0.60;0.60;;;;;;;4.07;100.00;96824.00;29396;203;63009;-62
2023/12/20 01:39:18;;;;;;;0.60;0.60;;;;;;;4.07;100.00;96827.50;29397;234;63005;-62
2023/12/20 01:39:49;;;;;;;0.60;0.60;;;;;;;4.07;100.00;96821.31;29396;202;63009;-56
2023/12/20 01:40:21;;;;;;;0.60;0.60;;;;;;;4.06;100.00;96825.06;29395;240;64009;-57
2023/12/20 01:40:52;;;;;;;0.60;0.60;;;;;;;4.04;100.00;96826.12;29396;240;63009;-56
2023/12/20 01:41:23;;;;;;;0.60;0.60;;;;;;;4.01;100.00;96821.28;29396;239;63005;-60
2023/12/20 01:41:54;;;;;;;0.60;0.60;;;;;;;4.01;100.00;96829.31;29396;226;63009;-61
2023/12/20 01:42:26;;;;;;;0.60;0.60;;;;;;;4.00;100.00;96822.34;29396;226;63005;-60
2023/12/20 01:43:01;;;;;;;0.60;0.60;;;;;;;4.00;100.00;96822.34;29396;204;63009;-57
2023/12/20 01:43:32;;;;;;;0.60;0.60;;;;;;;4.00;100.00;96821.53;29396;207;63004;-60
2023/12/20 01:44:04;;;;;;;0.60;0.60;;;;;;;4.00;100.00;96822.34;29396;197;63009;-56
2023/12/20 01:44:35;;;;;;;0.60;0.60;;;;;;;4.10;100.00;96823.50;29396;208;63004;-57
2023/12/20 01:45:07;;;;;;;0.60;0.60;;;;;;;4.10;100.00;96820.81;29396;202;63009;-62
2023/12/20 01:45:39;;;;;;;0.60;0.60;;;;;;;4.07;100.00;96826.69;29395;205;64008;-58
2023/12/20 01:46:12;;;;;;;0.60;0.60;;;;;;;4.07;100.00;96821.31;29396;213;63009;-61
2023/12/20 01:46:43;;;;;;;0.60;0.60;;;;;;;4.04;100.00;96823.44;29396;225;63005;-62
2023/12/20 01:47:17;;;;;;;0.60;0.60;;;;;;;4.03;100.00;96821.81;29396;212;63009;-62
2023/12/20 01:47:48;;;;;;;0.60;0.60;;;;;;;4.00;100.00;96825.03;29396;301;63005;-61
2023/12/20 01:48:21;;;;;;;0.60;0.60;;;;;;;4.01;100.00;96823.94;29396;246;63009;-57
2023/12/20 01:48:53;;;;;;;0.60;0.60;;;;;;;4.02;100.00;96830.94;29397;206;63005;-62
2023/12/20 01:49:24;;;;;;;0.60;0.60;;;;;;;4.01;100.00;96823.94;29397;220;63009;-57
2023/12/20 01:49:56;;;;;;;0.60;0.60;;;;;;;4.01;100.00;96823.16;29397;212;63004;-57
2023/12/20 01:50:28;;;;;;;0.60;0.60;;;;;;;3.99;100.00;96827.94;29397;252;63009;-62
2023/12/20 01:51:01;;;;;;;0.60;0.60;;;;;;;3.97;100.00;96838.94;29395;249;64009;-61
2023/12/20 01:51:33;;;;;;;0.60;0.60;;;;;;;3.96;100.00;96826.59;29397;293;63009;-61
2023/12/20 01:52:05;;;;;;;0.60;0.60;;;;;;;3.96;100.00;96831.13;29397;299;63004;-57
2023/12/20 01:52:37;;;;;;;0.60;0.60;;;;;;;3.94;100.00;96820.66;29397;215;63008;-61
2023/12/20 01:53:11;;;;;;;0.60;0.60;;;;;;;3.96;100.00;96831.13;29395;196;63004;-61
2023/12/20 01:53:43;;;;;;;0.60;0.60;;;;;;;3.96;100.00;96826.59;29395;204;63009;-61
2023/12/20 01:54:15;;;;;;;0.60;0.60;;;;;;;3.99;100.00;96831.44;29395;212;63005;-62
2023/12/20 01:54:47;;;;;;;0.60;0.60;;;;;;;3.99;100.00;96826.06;29395;197;63024;-57
2023/12/20 01:55:22;;;;;;;0.60;0.60;;;;;;;3.99;100.00;96820.72;29395;239;63005;-62
2023/12/20 01:55:56;;;;;;;0.60;0.60;;;;;;;3.99;100.00;96826.06;29395;234;63009;-57
2023/12/20 01:56:29;;;;;;;0.60;0.60;;;;;;;4.00;100.00;96819.66;29393;204;64009;-57
2023/12/20 01:57:01;;;;;;;0.60;0.60;;;;;;;4.01;100.00;96820.47;29395;230;63009;-57
2023/12/20 01:57:33;;;;;;;0.52;0.52;;;;;;;4.00;100.00;96824.22;29395;205;63004;-61
2023/12/20 01:58:05;;;;;;;0.60;0.60;;;;;;;3.99;100.00;96823.41;29395;230;63009;-57
2023/12/20 01:58:46;;;;;;;0.60;0.60;;;;;;;3.98;100.00;96824.47;29395;256;63004;-62
2023/12/20 01:59:20;;;;;;;0.60;0.60;;;;;;;3.97;100.00;96817.47;29395;212;63024;-62
2023/12/20 01:59:51;;;;;;;0.60;0.60;;;;;;;3.96;100.00;96810.47;29395;208;63004;-62
2023/12/20 02:00:26;;;;;;;0.60;0.60;;;;;;;3.95;100.00;96819.59;29396;245;63009;-57
2023/12/20 02:01:01;;;;;;;0.60;0.60;;;;;;;3.96;100.00;96809.66;29395;224;63005;-57
2023/12/20 02:01:32;;;;;;;0.60;0.60;;;;;;;3.95;100.00;96811.53;29393;220;64014;-62
2023/12/20 02:02:04;;;;;;;0.60;0.60;;;;;;;3.95;100.00;96814.22;29395;205;63017;-60
2023/12/20 02:02:39;;;;;;;0.60;0.60;;;;;;;3.96;100.00;96817.72;29395;227;63017;-60
2023/12/20 02:03:11;;;;;;;0.60;0.60;;;;;;;3.97;100.00;96811.28;29395;226;63005;-62
2023/12/20 02:03:46;;;;;;;0.60;0.60;;;;;;;3.98;100.00;96819.09;29395;202;63009;-62
2023/12/20 02:04:18;;;;;;;0.60;0.60;;;;;;;3.99;100.00;96812.66;29395;241;63010;-57
2023/12/20 02:04:50;;;;;;;0.60;0.60;;;;;;;4.00;100.00;96821.53;29395;309;63009;-57
2023/12/20 02:05:23;;;;;;;0.60;0.60;;;;;;;3.99;100.00;96815.34;29395;199;63004;-61
2023/12/20 02:05:55;;;;;;;0.60;0.60;;;;;;;3.99;100.00;96812.66;29395;314;63009;-62
2023/12/20 02:06:33;;;;;;;0.60;0.60;;;;;;;3.98;100.00;96816.41;29395;240;63004;-57
2023/12/20 02:07:05;;;;;;;0.60;0.60;;;;;;;3.97;100.00;96814.78;29393;299;64013;-61
2023/12/20 02:07:37;;;;;;;0.60;0.60;;;;;;;4.00;100.00;96818.84;29395;238;63004;-57
2023/12/20 02:08:08;;;;;;;0.60;0.60;;;;;;;4.00;100.00;96824.22;29395;234;63009;-62
2023/12/20 02:08:40;;;;;;;0.60;0.60;;;;;;;3.99;100.00;96815.34;29395;203;63010;-61
2023/12/20 02:09:12;;;;;;;0.60;0.60;;;;;;;3.98;100.00;96819.09;29395;238;63009;-62
2023/12/20 02:09:44;;;;;;;0.60;0.60;;;;;;;3.98;100.00;96808.34;29395;204;63005;-57
2023/12/20 02:10:16;;;;;;;0.60;0.60;;;;;;;3.98;100.00;96808.34;29395;198;63009;-58
2023/12/20 02:10:48;;;;;;;0.60;0.60;;;;;;;3.98;100.00;96812.91;29395;210;63005;-58
2023/12/20 02:11:22;;;;;;;0.60;0.60;;;;;;;3.97;100.00;96812.09;29395;214;63009;-61
2023/12/20 02:11:54;;;;;;;0.60;0.60;;;;;;;3.97;100.00;96812.09;29395;198;63009;-61
2023/12/20 02:12:27;;;;;;;0.60;0.60;;;;;;;3.97;100.00;96811.28;29393;197;64013;-63
2023/12/20 02:12:58;;;;;;;0.60;0.60;;;;;;;3.98;100.00;96813.72;29395;281;63004;-63
2023/12/20 02:13:31;;;;;;;0.60;0.60;;;;;;;3.98;100.00;96815.59;29395;220;63009;-60
2023/12/20 02:14:03;;;;;;;0.60;0.60;;;;;;;3.98;100.00;96816.41;29395;208;63004;-62
2023/12/20 02:14:34;;;;;;;0.60;0.60;;;;;;;3.98;100.00;96807.53;29395;238;63023;-62
2023/12/20 02:15:07;;;;;;;0.57;0.57;;;;;;;3.98;100.00;96819.09;29395;305;63004;-61
2023/12/20 02:15:42;;;;;;;0.60;0.60;;;;;;;3.96;100.00;96815.84;29395;208;63009;-61
2023/12/20 02:16:14;;;;;;;0.60;0.60;;;;;;;3.97;100.00;96812.09;29395;291;63005;-60
2023/12/20 02:16:46;;;;;;;0.60;0.60;;;;;;;3.98;100.00;96816.41;29395;213;63016;-57
2023/12/20 02:17:17;;;;;;;0.60;0.60;;;;;;;3.99;100.00;96815.34;29395;294;63005;-61
2023/12/20 02:17:49;;;;;;;0.60;0.60;;;;;;;4.02;100.00;96814.84;29393;246;64013;-60
2023/12/20 02:18:22;;;;;;;0.60;0.60;;;;;;;4.03;100.00;96816.47;29395;242;63005;-61
2023/12/20 02:18:53;;;;;;;0.60;0.60;;;;;;;4.03;100.00;96821.81;29395;232;63028;-61
2023/12/20 02:19:28;;;;;;;0.60;0.60;;;;;;;4.04;100.00;96822.63;29395;202;63016;-57
2023/12/20 02:20:00;;;;;;;0.60;0.60;;;;;;;4.04;100.00;96819.97;29395;221;63009;-62
2023/12/20 02:20:31;;;;;;;0.60;0.60;;;;;;;4.03;100.00;96816.47;29395;212;63004;-62
2023/12/20 02:21:05;;;;;;;0.60;0.60;;;;;;;4.04;100.00;96818.09;29395;292;63009;-57
2023/12/20 02:21:37;;;;;;;0.60;0.60;;;;;;;4.03;100.00;96811.09;29395;250;63004;-61
2023/12/20 02:22:11;;;;;;;0.60;0.60;;;;;;;4.04;100.00;96811.91;29395;271;63008;-63
2023/12/20 02:22:43;;;;;;;0.60;0.60;;;;;;;4.01;100.00;96813.22;29395;224;63017;-62
2023/12/20 02:23:17;;;;;;;0.60;0.60;;;;;;;4.01;100.00;96813.22;29393;226;64014;-57
2023/12/20 02:23:49;;;;;;;0.60;0.60;;;;;;;4.01;100.00;96807.03;29395;291;63005;-62
2023/12/20 02:24:20;;;;;;;0.60;0.60;;;;;;;4.00;100.00;96816.16;29395;253;63009;-61
2023/12/20 02:24:51;;;;;;;0.60;0.60;;;;;;;3.99;100.00;96815.34;29395;247;63005;-62
2023/12/20 02:25:24;;;;;;;0.60;0.60;;;;;;;3.98;100.00;96819.09;29395;203;63009;-57
2023/12/20 02:25:55;;;;;;;0.60;0.60;;;;;;;3.98;100.00;96816.41;29395;274;63005;-62
2023/12/20 02:26:27;;;;;;;0.60;0.60;;;;;;;4.06;100.00;96815.16;29395;202;63009;-57
2023/12/20 02:26:59;;;;;;;0.60;0.60;;;;;;;4.10;100.00;96810.09;29395;202;63005;-62
2023/12/20 02:27:31;;;;;;;0.60;0.60;;;;;;;4.12;100.00;96818.69;29395;219;63009;-61
2023/12/20 02:28:04;;;;;;;0.60;0.60;;;;;;;4.10;100.00;96804.72;29395;257;63004;-62
2023/12/20 02:28:35;;;;;;;0.60;0.60;;;;;;;4.11;100.00;96817.06;29394;248;64013;-57
2023/12/20 02:29:07;;;;;;;0.65;0.65;;;;;;;4.17;100.00;96810.66;29395;196;63007;-59
2023/12/20 02:29:38;;;;;;;0.60;0.60;;;;;;;4.16;100.00;96817.91;29395;235;63008;-61
2023/12/20 02:30:11;;;;;;;0.60;0.60;;;;;;;4.19;100.00;96813.91;29395;228;63004;-62
2023/12/20 02:30:42;;;;;;;0.60;0.60;;;;;;;4.18;100.00;96814.97;29395;236;63009;-57
2023/12/20 02:31:14;;;;;;;0.60;0.60;;;;;;;4.16;100.00;96815.22;29395;198;63005;-57
2023/12/20 02:31:45;;;;;;;0.60;0.60;;;;;;;4.15;100.00;96818.19;29395;230;63009;-61
2023/12/20 02:32:18;;;;;;;0.60;0.60;;;;;;;4.13;100.00;96812.25;29395;305;63008;-61